sensor_id;sensor_type;location;lat;lon;timestamp;temperature;humidity
8420;DHT22;4247;48.550;8.822;2023-08-06T00:00:20;15.10;99.90
8420;DHT22;4247;48.550;8.822;2023-08-06T00:02:47;15.10;99.90
8420;DHT22;4247;48.550;8.822;2023-08-06T00:05:14;15.00;99.90
8420;DHT22;4247;48.550;8.822;2023-08-06T00:07:44;15.00;99.90
8420;DHT22;4247;48.550;8.822;2023-08-06T00:10:10;14.90;99.90
8420;DHT22;4247;48.550;8.822;2023-08-06T00:12:37;14.90;99.90
8420;DHT22;4247;48.550;8.822;2023-08-06T00:15:04;14.80;99.90
8420;DHT22;4247;48.550;8.822;2023-08-06T00:17:31;14.70;99.90
8420;DHT22;4247;48.550;8.822;2023-08-06T00:19:58;14.70;99.90
8420;DHT22;4247;48.550;8.822;2023-08-06T00:22:30;14.70;99.90
8420;DHT22;4247;48.550;8.822;2023-08-06T00:24:58;14.60;99.90
8420;DHT22;4247;48.550;8.822;2023-08-06T00:27:24;14.60;99.90
8420;DHT22;4247;48.550;8.822;2023-08-06T00:29:51;14.60;99.90
8420;DHT22;4247;48.550;8.822;2023-08-06T00:32:18;14.50;99.90
8420;DHT22;4247;48.550;8.822;2023-08-06T00:34:45;14.50;99.90
8420;DHT22;4247;48.550;8.822;2023-08-06T00:37:12;14.40;99.90
8420;DHT22;4247;48.550;8.822;2023-08-06T00:39:38;14.40;99.90
8420;DHT22;4247;48.550;8.822;2023-08-06T00:42:06;14.40;99.90
8420;DHT22;4247;48.550;8.822;2023-08-06T00:44:33;14.40;99.90
8420;DHT22;4247;48.550;8.822;2023-08-06T00:47:00;14.40;99.90
8420;DHT22;4247;48.550;8.822;2023-08-06T00:49:27;14.30;99.90
8420;DHT22;4247;48.550;8.822;2023-08-06T00:51:55;14.30;99.90
8420;DHT22;4247;48.550;8.822;2023-08-06T00:54:23;14.30;99.90
8420;DHT22;4247;48.550;8.822;2023-08-06T00:56:49;14.30;99.90
8420;DHT22;4247;48.550;8.822;2023-08-06T00:59:18;14.20;99.90
8420;DHT22;4247;48.550;8.822;2023-08-06T01:01:45;14.30;99.90
8420;DHT22;4247;48.550;8.822;2023-08-06T01:04:12;14.20;99.90
8420;DHT22;4247;48.550;8.822;2023-08-06T01:06:42;14.30;99.90
8420;DHT22;4247;48.550;8.822;2023-08-06T01:09:19;14.30;99.90
8420;DHT22;4247;48.550;8.822;2023-08-06T01:11:58;14.20;99.90
8420;DHT22;4247;48.550;8.822;2023-08-06T01:14:32;14.20;99.90
8420;DHT22;4247;48.550;8.822;2023-08-06T01:17:01;14.10;99.90
8420;DHT22;4247;48.550;8.822;2023-08-06T01:19:28;14.20;99.90
8420;DHT22;4247;48.550;8.822;2023-08-06T01:21:56;14.20;99.90
8420;DHT22;4247;48.550;8.822;2023-08-06T01:24:23;14.10;99.90
8420;DHT22;4247;48.550;8.822;2023-08-06T01:26:57;14.00;99.90
8420;DHT22;4247;48.550;8.822;2023-08-06T01:29:30;14.00;99.90
8420;DHT22;4247;48.550;8.822;2023-08-06T01:31:58;14.00;99.90
8420;DHT22;4247;48.550;8.822;2023-08-06T01:34:28;14.00;99.90
8420;DHT22;4247;48.550;8.822;2023-08-06T01:36:59;14.00;99.90
8420;DHT22;4247;48.550;8.822;2023-08-06T01:39:27;14.00;99.90
8420;DHT22;4247;48.550;8.822;2023-08-06T01:41:53;14.00;99.90
8420;DHT22;4247;48.550;8.822;2023-08-06T01:44:20;14.00;99.90
8420;DHT22;4247;48.550;8.822;2023-08-06T01:46:47;13.90;99.90
8420;DHT22;4247;48.550;8.822;2023-08-06T01:49:14;13.90;99.90
8420;DHT22;4247;48.550;8.822;2023-08-06T01:51:40;13.80;99.90
8420;DHT22;4247;48.550;8.822;2023-08-06T01:54:08;13.80;99.90
8420;DHT22;4247;48.550;8.822;2023-08-06T01:56:35;13.80;99.90
8420;DHT22;4247;48.550;8.822;2023-08-06T01:59:02;13.70;99.90
8420;DHT22;4247;48.550;8.822;2023-08-06T02:01:28;13.80;99.90
8420;DHT22;4247;48.550;8.822;2023-08-06T02:03:55;13.70;99.90
8420;DHT22;4247;48.550;8.822;2023-08-06T02:06:22;13.70;99.90
8420;DHT22;4247;48.550;8.822;2023-08-06T02:08:48;13.70;99.90
8420;DHT22;4247;48.550;8.822;2023-08-06T02:11:16;13.70;99.90
8420;DHT22;4247;48.550;8.822;2023-08-06T02:13:43;13.70;99.90
8420;DHT22;4247;48.550;8.822;2023-08-06T02:16:10;13.80;99.90
8420;DHT22;4247;48.550;8.822;2023-08-06T02:18:37;13.80;99.90
8420;DHT22;4247;48.550;8.822;2023-08-06T02:21:03;13.80;99.90
8420;DHT22;4247;48.550;8.822;2023-08-06T02:23:30;13.90;99.90
8420;DHT22;4247;48.550;8.822;2023-08-06T02:25:58;13.90;99.90
8420;DHT22;4247;48.550;8.822;2023-08-06T02:28:27;14.00;99.90
8420;DHT22;4247;48.550;8.822;2023-08-06T02:30:53;14.00;99.90
8420;DHT22;4247;48.550;8.822;2023-08-06T02:33:20;14.10;99.90
8420;DHT22;4247;48.550;8.822;2023-08-06T02:35:47;14.10;99.90
8420;DHT22;4247;48.550;8.822;2023-08-06T02:38:14;14.00;99.90
8420;DHT22;4247;48.550;8.822;2023-08-06T02:40:43;14.00;99.90
8420;DHT22;4247;48.550;8.822;2023-08-06T02:43:10;14.00;99.90
8420;DHT22;4247;48.550;8.822;2023-08-06T02:45:38;14.00;99.90
8420;DHT22;4247;48.550;8.822;2023-08-06T02:48:05;14.00;99.90
8420;DHT22;4247;48.550;8.822;2023-08-06T02:50:38;14.00;99.90
8420;DHT22;4247;48.550;8.822;2023-08-06T02:53:05;14.00;99.90
8420;DHT22;4247;48.550;8.822;2023-08-06T02:55:31;14.00;99.90
8420;DHT22;4247;48.550;8.822;2023-08-06T02:57:59;14.00;99.90
8420;DHT22;4247;48.550;8.822;2023-08-06T03:00:26;14.00;99.90
8420;DHT22;4247;48.550;8.822;2023-08-06T03:02:54;14.00;99.90
8420;DHT22;4247;48.550;8.822;2023-08-06T03:05:20;14.10;99.90
8420;DHT22;4247;48.550;8.822;2023-08-06T03:07:47;14.10;99.90
8420;DHT22;4247;48.550;8.822;2023-08-06T03:10:14;14.20;99.90
8420;DHT22;4247;48.550;8.822;2023-08-06T03:12:41;14.20;99.90
8420;DHT22;4247;48.550;8.822;2023-08-06T03:15:08;14.20;99.90
8420;DHT22;4247;48.550;8.822;2023-08-06T03:17:35;14.30;99.90
8420;DHT22;4247;48.550;8.822;2023-08-06T03:20:04;14.30;99.90
8420;DHT22;4247;48.550;8.822;2023-08-06T03:22:31;14.30;99.90
8420;DHT22;4247;48.550;8.822;2023-08-06T03:24:58;14.30;99.90
8420;DHT22;4247;48.550;8.822;2023-08-06T03:27:24;14.30;99.90
8420;DHT22;4247;48.550;8.822;2023-08-06T03:29:51;14.30;99.90
8420;DHT22;4247;48.550;8.822;2023-08-06T03:32:18;14.40;99.90
8420;DHT22;4247;48.550;8.822;2023-08-06T03:34:45;14.40;99.90
8420;DHT22;4247;48.550;8.822;2023-08-06T03:37:13;14.40;99.90
8420;DHT22;4247;48.550;8.822;2023-08-06T03:39:40;14.40;99.90
8420;DHT22;4247;48.550;8.822;2023-08-06T03:42:06;14.40;99.90
8420;DHT22;4247;48.550;8.822;2023-08-06T03:44:33;14.40;99.90
8420;DHT22;4247;48.550;8.822;2023-08-06T03:47:00;14.40;99.90
8420;DHT22;4247;48.550;8.822;2023-08-06T03:49:26;14.40;99.90
8420;DHT22;4247;48.550;8.822;2023-08-06T03:51:53;14.50;99.90
8420;DHT22;4247;48.550;8.822;2023-08-06T03:54:21;14.50;99.90
8420;DHT22;4247;48.550;8.822;2023-08-06T03:56:48;14.50;99.90
8420;DHT22;4247;48.550;8.822;2023-08-06T03:59:14;14.50;99.90
8420;DHT22;4247;48.550;8.822;2023-08-06T04:01:41;14.50;99.90
8420;DHT22;4247;48.550;8.822;2023-08-06T04:04:08;14.50;99.90
8420;DHT22;4247;48.550;8.822;2023-08-06T04:06:34;14.50;99.90
8420;DHT22;4247;48.550;8.822;2023-08-06T04:09:01;14.50;99.90
8420;DHT22;4247;48.550;8.822;2023-08-06T04:11:29;14.50;99.90
8420;DHT22;4247;48.550;8.822;2023-08-06T04:13:56;14.50;99.90
8420;DHT22;4247;48.550;8.822;2023-08-06T04:16:23;14.50;99.90
8420;DHT22;4247;48.550;8.822;2023-08-06T04:18:51;14.50;99.90
8420;DHT22;4247;48.550;8.822;2023-08-06T04:21:19;14.50;99.90
8420;DHT22;4247;48.550;8.822;2023-08-06T04:23:45;14.50;99.90
8420;DHT22;4247;48.550;8.822;2023-08-06T04:26:12;14.50;99.90
8420;DHT22;4247;48.550;8.822;2023-08-06T04:28:40;14.50;99.90
8420;DHT22;4247;48.550;8.822;2023-08-06T04:31:07;14.40;99.90
8420;DHT22;4247;48.550;8.822;2023-08-06T04:33:34;14.40;99.90
8420;DHT22;4247;48.550;8.822;2023-08-06T04:36:00;14.30;99.90
8420;DHT22;4247;48.550;8.822;2023-08-06T04:38:27;14.30;99.90
8420;DHT22;4247;48.550;8.822;2023-08-06T04:40:54;14.20;99.90
8420;DHT22;4247;48.550;8.822;2023-08-06T04:43:21;14.20;99.90
8420;DHT22;4247;48.550;8.822;2023-08-06T04:45:49;14.20;99.90
8420;DHT22;4247;48.550;8.822;2023-08-06T04:48:17;14.20;99.90
8420;DHT22;4247;48.550;8.822;2023-08-06T04:50:44;14.20;99.90
8420;DHT22;4247;48.550;8.822;2023-08-06T04:53:11;14.20;99.90
8420;DHT22;4247;48.550;8.822;2023-08-06T04:55:38;14.30;99.90
8420;DHT22;4247;48.550;8.822;2023-08-06T04:58:04;14.30;99.90
8420;DHT22;4247;48.550;8.822;2023-08-06T05:00:31;14.40;99.90
8420;DHT22;4247;48.550;8.822;2023-08-06T05:03:00;14.40;99.90
8420;DHT22;4247;48.550;8.822;2023-08-06T05:05:27;14.40;99.90
8420;DHT22;4247;48.550;8.822;2023-08-06T05:07:56;14.50;99.90
8420;DHT22;4247;48.550;8.822;2023-08-06T05:10:24;14.60;99.90
8420;DHT22;4247;48.550;8.822;2023-08-06T05:12:51;14.70;99.90
8420;DHT22;4247;48.550;8.822;2023-08-06T05:15:18;14.80;99.90
8420;DHT22;4247;48.550;8.822;2023-08-06T05:17:45;14.90;99.90
8420;DHT22;4247;48.550;8.822;2023-08-06T05:20:13;14.90;99.90
8420;DHT22;4247;48.550;8.822;2023-08-06T05:22:40;15.00;99.90
8420;DHT22;4247;48.550;8.822;2023-08-06T05:25:07;15.10;99.90
8420;DHT22;4247;48.550;8.822;2023-08-06T05:27:34;15.10;99.90
8420;DHT22;4247;48.550;8.822;2023-08-06T05:30:00;15.10;99.90
8420;DHT22;4247;48.550;8.822;2023-08-06T05:32:27;15.10;99.90
8420;DHT22;4247;48.550;8.822;2023-08-06T05:34:54;15.10;99.90
8420;DHT22;4247;48.550;8.822;2023-08-06T05:37:22;15.10;99.90
8420;DHT22;4247;48.550;8.822;2023-08-06T05:39:49;15.00;99.90
8420;DHT22;4247;48.550;8.822;2023-08-06T05:42:16;15.00;99.90
8420;DHT22;4247;48.550;8.822;2023-08-06T05:44:42;15.00;99.90
8420;DHT22;4247;48.550;8.822;2023-08-06T05:47:09;14.90;99.90
8420;DHT22;4247;48.550;8.822;2023-08-06T05:49:36;14.90;99.90
8420;DHT22;4247;48.550;8.822;2023-08-06T05:52:03;14.90;99.90
8420;DHT22;4247;48.550;8.822;2023-08-06T05:54:33;15.00;99.90
8420;DHT22;4247;48.550;8.822;2023-08-06T05:56:59;15.00;99.90
8420;DHT22;4247;48.550;8.822;2023-08-06T05:59:26;15.10;99.90
8420;DHT22;4247;48.550;8.822;2023-08-06T06:01:53;15.20;99.90
8420;DHT22;4247;48.550;8.822;2023-08-06T06:04:20;15.20;99.90
8420;DHT22;4247;48.550;8.822;2023-08-06T06:06:47;15.20;99.90
8420;DHT22;4247;48.550;8.822;2023-08-06T06:09:13;15.20;99.90
8420;DHT22;4247;48.550;8.822;2023-08-06T06:11:41;15.30;99.90
8420;DHT22;4247;48.550;8.822;2023-08-06T06:14:08;15.30;99.90
8420;DHT22;4247;48.550;8.822;2023-08-06T06:16:35;15.20;99.90
8420;DHT22;4247;48.550;8.822;2023-08-06T06:19:02;15.20;99.90
8420;DHT22;4247;48.550;8.822;2023-08-06T06:21:28;15.20;99.90
8420;DHT22;4247;48.550;8.822;2023-08-06T06:23:55;15.20;99.90
8420;DHT22;4247;48.550;8.822;2023-08-06T06:26:22;15.20;99.90
8420;DHT22;4247;48.550;8.822;2023-08-06T06:28:50;15.20;99.90
8420;DHT22;4247;48.550;8.822;2023-08-06T06:31:17;15.30;99.90
8420;DHT22;4247;48.550;8.822;2023-08-06T06:33:43;15.20;99.90
8420;DHT22;4247;48.550;8.822;2023-08-06T06:36:10;15.30;99.90
8420;DHT22;4247;48.550;8.822;2023-08-06T06:38:37;15.30;99.90
8420;DHT22;4247;48.550;8.822;2023-08-06T06:41:04;15.40;99.90
8420;DHT22;4247;48.550;8.822;2023-08-06T06:43:31;15.40;99.90
8420;DHT22;4247;48.550;8.822;2023-08-06T06:45:59;15.40;99.90
8420;DHT22;4247;48.550;8.822;2023-08-06T06:48:27;15.40;99.90
8420;DHT22;4247;48.550;8.822;2023-08-06T06:50:55;15.60;99.90
8420;DHT22;4247;48.550;8.822;2023-08-06T06:53:22;15.60;99.90
8420;DHT22;4247;48.550;8.822;2023-08-06T06:55:52;15.60;99.90
8420;DHT22;4247;48.550;8.822;2023-08-06T06:58:19;15.60;99.90
8420;DHT22;4247;48.550;8.822;2023-08-06T07:00:46;15.50;99.90
8420;DHT22;4247;48.550;8.822;2023-08-06T07:03:14;15.50;99.90
8420;DHT22;4247;48.550;8.822;2023-08-06T07:05:41;15.50;99.90
8420;DHT22;4247;48.550;8.822;2023-08-06T07:08:08;15.50;99.90
8420;DHT22;4247;48.550;8.822;2023-08-06T07:10:35;15.50;99.90
8420;DHT22;4247;48.550;8.822;2023-08-06T07:13:01;15.50;99.90
8420;DHT22;4247;48.550;8.822;2023-08-06T07:15:28;15.40;99.90
8420;DHT22;4247;48.550;8.822;2023-08-06T07:17:55;15.40;99.90
8420;DHT22;4247;48.550;8.822;2023-08-06T07:20:23;15.40;99.90
8420;DHT22;4247;48.550;8.822;2023-08-06T07:22:50;15.40;99.90
8420;DHT22;4247;48.550;8.822;2023-08-06T07:25:17;15.50;99.90
8420;DHT22;4247;48.550;8.822;2023-08-06T07:27:44;15.50;99.90
8420;DHT22;4247;48.550;8.822;2023-08-06T07:30:11;15.60;99.90
8420;DHT22;4247;48.550;8.822;2023-08-06T07:32:38;15.60;99.90
8420;DHT22;4247;48.550;8.822;2023-08-06T07:35:05;15.70;99.90
8420;DHT22;4247;48.550;8.822;2023-08-06T07:37:34;15.70;99.90
8420;DHT22;4247;48.550;8.822;2023-08-06T07:40:01;15.80;99.90
8420;DHT22;4247;48.550;8.822;2023-08-06T07:42:29;15.90;99.90
8420;DHT22;4247;48.550;8.822;2023-08-06T07:44:57;16.00;99.90
8420;DHT22;4247;48.550;8.822;2023-08-06T07:47:24;16.00;99.90
8420;DHT22;4247;48.550;8.822;2023-08-06T07:49:51;16.00;99.90
8420;DHT22;4247;48.550;8.822;2023-08-06T07:52:18;16.00;99.90
8420;DHT22;4247;48.550;8.822;2023-08-06T07:54:46;16.10;99.90
8420;DHT22;4247;48.550;8.822;2023-08-06T07:57:13;16.10;99.90
8420;DHT22;4247;48.550;8.822;2023-08-06T07:59:40;16.10;99.90
8420;DHT22;4247;48.550;8.822;2023-08-06T08:02:07;16.10;99.90
8420;DHT22;4247;48.550;8.822;2023-08-06T08:04:34;16.00;99.90
8420;DHT22;4247;48.550;8.822;2023-08-06T08:07:01;15.90;99.90
8420;DHT22;4247;48.550;8.822;2023-08-06T08:09:27;15.90;99.90
8420;DHT22;4247;48.550;8.822;2023-08-06T08:11:56;15.90;99.90
8420;DHT22;4247;48.550;8.822;2023-08-06T08:14:23;15.90;99.90
8420;DHT22;4247;48.550;8.822;2023-08-06T08:16:50;15.80;99.90
8420;DHT22;4247;48.550;8.822;2023-08-06T08:19:16;15.90;99.90
8420;DHT22;4247;48.550;8.822;2023-08-06T08:21:43;15.90;99.90
8420;DHT22;4247;48.550;8.822;2023-08-06T08:24:10;15.90;99.90
8420;DHT22;4247;48.550;8.822;2023-08-06T08:26:36;15.90;99.90
8420;DHT22;4247;48.550;8.822;2023-08-06T08:29:04;16.10;99.90
8420;DHT22;4247;48.550;8.822;2023-08-06T08:31:31;16.20;99.90
8420;DHT22;4247;48.550;8.822;2023-08-06T08:34:04;16.30;99.90
8420;DHT22;4247;48.550;8.822;2023-08-06T08:36:31;16.20;99.90
8420;DHT22;4247;48.550;8.822;2023-08-06T08:38:57;16.20;99.90
8420;DHT22;4247;48.550;8.822;2023-08-06T08:41:24;16.20;99.90
8420;DHT22;4247;48.550;8.822;2023-08-06T08:43:51;16.20;99.90
8420;DHT22;4247;48.550;8.822;2023-08-06T08:46:20;16.20;99.90
8420;DHT22;4247;48.550;8.822;2023-08-06T08:48:47;16.20;99.90
8420;DHT22;4247;48.550;8.822;2023-08-06T08:51:15;16.30;99.90
8420;DHT22;4247;48.550;8.822;2023-08-06T08:53:44;16.20;99.90
8420;DHT22;4247;48.550;8.822;2023-08-06T08:56:13;16.20;99.90
8420;DHT22;4247;48.550;8.822;2023-08-06T08:58:40;16.20;99.90
8420;DHT22;4247;48.550;8.822;2023-08-06T09:01:07;16.30;99.90
8420;DHT22;4247;48.550;8.822;2023-08-06T09:03:36;16.30;99.90
8420;DHT22;4247;48.550;8.822;2023-08-06T09:06:04;16.40;99.90
8420;DHT22;4247;48.550;8.822;2023-08-06T09:08:35;16.60;99.90
8420;DHT22;4247;48.550;8.822;2023-08-06T09:11:03;16.60;99.90
8420;DHT22;4247;48.550;8.822;2023-08-06T09:13:30;16.70;99.90
8420;DHT22;4247;48.550;8.822;2023-08-06T09:15:57;16.80;99.90
8420;DHT22;4247;48.550;8.822;2023-08-06T09:18:27;16.90;99.90
8420;DHT22;4247;48.550;8.822;2023-08-06T09:20:57;16.80;99.90
8420;DHT22;4247;48.550;8.822;2023-08-06T09:23:28;16.80;99.90
8420;DHT22;4247;48.550;8.822;2023-08-06T09:25:56;16.70;99.90
8420;DHT22;4247;48.550;8.822;2023-08-06T09:28:23;16.70;99.90
8420;DHT22;4247;48.550;8.822;2023-08-06T09:30:52;16.60;99.90
8420;DHT22;4247;48.550;8.822;2023-08-06T09:33:22;16.60;99.90
8420;DHT22;4247;48.550;8.822;2023-08-06T09:35:49;16.60;99.90
8420;DHT22;4247;48.550;8.822;2023-08-06T09:38:17;16.60;99.90
8420;DHT22;4247;48.550;8.822;2023-08-06T09:40:44;16.60;99.90
8420;DHT22;4247;48.550;8.822;2023-08-06T09:43:11;16.60;99.90
8420;DHT22;4247;48.550;8.822;2023-08-06T09:45:38;16.60;99.90
8420;DHT22;4247;48.550;8.822;2023-08-06T09:48:06;16.40;99.90
8420;DHT22;4247;48.550;8.822;2023-08-06T09:50:34;16.30;99.90
8420;DHT22;4247;48.550;8.822;2023-08-06T09:53:03;16.30;99.90
8420;DHT22;4247;48.550;8.822;2023-08-06T09:55:32;16.20;99.90
8420;DHT22;4247;48.550;8.822;2023-08-06T09:57:59;16.20;99.90
8420;DHT22;4247;48.550;8.822;2023-08-06T10:00:27;16.20;99.90
8420;DHT22;4247;48.550;8.822;2023-08-06T10:02:55;16.20;99.90
8420;DHT22;4247;48.550;8.822;2023-08-06T10:05:26;16.30;99.90
8420;DHT22;4247;48.550;8.822;2023-08-06T10:07:53;16.40;99.90
8420;DHT22;4247;48.550;8.822;2023-08-06T10:10:23;16.40;99.90
8420;DHT22;4247;48.550;8.822;2023-08-06T10:12:52;16.50;99.90
8420;DHT22;4247;48.550;8.822;2023-08-06T10:15:23;16.60;99.90
8420;DHT22;4247;48.550;8.822;2023-08-06T10:17:54;16.70;99.90
8420;DHT22;4247;48.550;8.822;2023-08-06T10:20:22;16.70;99.90
8420;DHT22;4247;48.550;8.822;2023-08-06T10:23:00;16.80;99.90
8420;DHT22;4247;48.550;8.822;2023-08-06T10:25:30;16.90;99.90
8420;DHT22;4247;48.550;8.822;2023-08-06T10:27:59;16.80;99.90
8420;DHT22;4247;48.550;8.822;2023-08-06T10:30:29;16.70;99.90
8420;DHT22;4247;48.550;8.822;2023-08-06T10:32:58;16.80;99.90
8420;DHT22;4247;48.550;8.822;2023-08-06T10:35:35;16.80;99.90
8420;DHT22;4247;48.550;8.822;2023-08-06T10:38:05;16.90;99.90
8420;DHT22;4247;48.550;8.822;2023-08-06T10:40:34;16.90;99.90
8420;DHT22;4247;48.550;8.822;2023-08-06T10:43:02;16.90;99.90
8420;DHT22;4247;48.550;8.822;2023-08-06T10:45:30;16.90;99.90
8420;DHT22;4247;48.550;8.822;2023-08-06T10:48:00;16.90;99.90
8420;DHT22;4247;48.550;8.822;2023-08-06T10:50:27;16.80;99.90
8420;DHT22;4247;48.550;8.822;2023-08-06T10:52:53;16.80;99.90
8420;DHT22;4247;48.550;8.822;2023-08-06T10:55:24;16.80;99.90
8420;DHT22;4247;48.550;8.822;2023-08-06T10:57:52;16.70;99.90
8420;DHT22;4247;48.550;8.822;2023-08-06T11:00:20;16.50;99.90
8420;DHT22;4247;48.550;8.822;2023-08-06T11:02:48;16.50;99.90
8420;DHT22;4247;48.550;8.822;2023-08-06T11:05:15;16.40;99.90
8420;DHT22;4247;48.550;8.822;2023-08-06T11:07:42;16.50;99.90
8420;DHT22;4247;48.550;8.822;2023-08-06T11:10:10;16.50;99.90
8420;DHT22;4247;48.550;8.822;2023-08-06T11:12:37;16.50;99.90
8420;DHT22;4247;48.550;8.822;2023-08-06T11:15:05;16.50;99.90
8420;DHT22;4247;48.550;8.822;2023-08-06T11:17:34;16.40;99.90
8420;DHT22;4247;48.550;8.822;2023-08-06T11:20:02;16.30;99.90
8420;DHT22;4247;48.550;8.822;2023-08-06T11:22:29;16.30;99.90
8420;DHT22;4247;48.550;8.822;2023-08-06T11:24:56;16.40;99.90
8420;DHT22;4247;48.550;8.822;2023-08-06T11:27:25;16.50;99.90
8420;DHT22;4247;48.550;8.822;2023-08-06T11:29:52;16.60;99.90
8420;DHT22;4247;48.550;8.822;2023-08-06T11:32:19;16.70;99.90
8420;DHT22;4247;48.550;8.822;2023-08-06T11:34:47;16.70;99.90
8420;DHT22;4247;48.550;8.822;2023-08-06T11:37:14;16.70;99.90
8420;DHT22;4247;48.550;8.822;2023-08-06T11:39:46;16.70;99.90
8420;DHT22;4247;48.550;8.822;2023-08-06T11:42:14;16.90;99.90
8420;DHT22;4247;48.550;8.822;2023-08-06T11:44:41;17.00;99.90
8420;DHT22;4247;48.550;8.822;2023-08-06T11:47:13;17.10;99.90
8420;DHT22;4247;48.550;8.822;2023-08-06T11:49:41;17.20;99.90
8420;DHT22;4247;48.550;8.822;2023-08-06T11:52:21;17.20;99.90
8420;DHT22;4247;48.550;8.822;2023-08-06T11:55:00;17.20;99.90
8420;DHT22;4247;48.550;8.822;2023-08-06T11:57:29;17.00;99.90
8420;DHT22;4247;48.550;8.822;2023-08-06T11:59:58;16.70;99.90
8420;DHT22;4247;48.550;8.822;2023-08-06T12:02:31;16.60;99.90
8420;DHT22;4247;48.550;8.822;2023-08-06T12:05:01;16.60;99.90
8420;DHT22;4247;48.550;8.822;2023-08-06T12:07:32;16.60;99.90
8420;DHT22;4247;48.550;8.822;2023-08-06T12:10:00;16.50;99.90
8420;DHT22;4247;48.550;8.822;2023-08-06T12:12:27;16.40;99.90
8420;DHT22;4247;48.550;8.822;2023-08-06T12:14:54;16.50;99.90
8420;DHT22;4247;48.550;8.822;2023-08-06T12:17:22;16.30;99.90
8420;DHT22;4247;48.550;8.822;2023-08-06T12:19:48;16.40;99.90
8420;DHT22;4247;48.550;8.822;2023-08-06T12:22:16;16.30;99.90
8420;DHT22;4247;48.550;8.822;2023-08-06T12:24:46;16.30;99.90
8420;DHT22;4247;48.550;8.822;2023-08-06T12:27:13;16.30;99.90
8420;DHT22;4247;48.550;8.822;2023-08-06T12:29:41;16.30;99.90
8420;DHT22;4247;48.550;8.822;2023-08-06T12:32:09;16.50;99.90
8420;DHT22;4247;48.550;8.822;2023-08-06T12:34:37;16.50;99.90
8420;DHT22;4247;48.550;8.822;2023-08-06T12:37:04;16.50;99.90
8420;DHT22;4247;48.550;8.822;2023-08-06T12:39:30;16.50;99.90
8420;DHT22;4247;48.550;8.822;2023-08-06T12:41:59;16.30;99.90
8420;DHT22;4247;48.550;8.822;2023-08-06T12:44:26;16.20;99.90
8420;DHT22;4247;48.550;8.822;2023-08-06T12:46:53;16.10;99.90
8420;DHT22;4247;48.550;8.822;2023-08-06T12:49:20;16.10;99.90
8420;DHT22;4247;48.550;8.822;2023-08-06T12:51:47;16.20;99.90
8420;DHT22;4247;48.550;8.822;2023-08-06T12:54:14;16.10;99.90
8420;DHT22;4247;48.550;8.822;2023-08-06T12:56:41;16.20;99.90
8420;DHT22;4247;48.550;8.822;2023-08-06T12:59:09;16.20;99.90
8420;DHT22;4247;48.550;8.822;2023-08-06T13:01:37;16.40;99.90
8420;DHT22;4247;48.550;8.822;2023-08-06T13:04:04;16.50;99.90
8420;DHT22;4247;48.550;8.822;2023-08-06T13:06:30;16.50;99.90
8420;DHT22;4247;48.550;8.822;2023-08-06T13:09:01;16.60;99.90
8420;DHT22;4247;48.550;8.822;2023-08-06T13:11:28;16.60;99.90
8420;DHT22;4247;48.550;8.822;2023-08-06T13:13:56;16.60;99.90
8420;DHT22;4247;48.550;8.822;2023-08-06T13:16:24;16.80;99.90
8420;DHT22;4247;48.550;8.822;2023-08-06T13:18:51;16.90;99.90
8420;DHT22;4247;48.550;8.822;2023-08-06T13:21:18;17.00;99.90
8420;DHT22;4247;48.550;8.822;2023-08-06T13:23:44;17.10;99.90
8420;DHT22;4247;48.550;8.822;2023-08-06T13:26:11;17.30;99.90
8420;DHT22;4247;48.550;8.822;2023-08-06T13:28:38;17.30;99.90
8420;DHT22;4247;48.550;8.822;2023-08-06T13:31:04;17.20;99.90
8420;DHT22;4247;48.550;8.822;2023-08-06T13:33:32;17.40;99.90
8420;DHT22;4247;48.550;8.822;2023-08-06T13:36:00;17.50;99.90
8420;DHT22;4247;48.550;8.822;2023-08-06T13:38:26;17.60;99.90
8420;DHT22;4247;48.550;8.822;2023-08-06T13:40:53;17.70;99.90
8420;DHT22;4247;48.550;8.822;2023-08-06T13:43:20;17.80;99.90
8420;DHT22;4247;48.550;8.822;2023-08-06T13:45:46;17.90;99.90
8420;DHT22;4247;48.550;8.822;2023-08-06T13:48:13;18.00;99.90
8420;DHT22;4247;48.550;8.822;2023-08-06T13:50:41;18.10;99.90
8420;DHT22;4247;48.550;8.822;2023-08-06T13:53:08;18.00;99.90
8420;DHT22;4247;48.550;8.822;2023-08-06T13:55:35;18.10;99.90
8420;DHT22;4247;48.550;8.822;2023-08-06T13:58:01;18.10;99.90
8420;DHT22;4247;48.550;8.822;2023-08-06T14:00:28;18.00;99.90
8420;DHT22;4247;48.550;8.822;2023-08-06T14:02:55;17.90;99.90
8420;DHT22;4247;48.550;8.822;2023-08-06T14:05:22;17.80;99.90
8420;DHT22;4247;48.550;8.822;2023-08-06T14:07:50;17.80;99.90
8420;DHT22;4247;48.550;8.822;2023-08-06T14:10:17;17.50;99.90
8420;DHT22;4247;48.550;8.822;2023-08-06T14:12:43;17.20;99.90
8420;DHT22;4247;48.550;8.822;2023-08-06T14:15:11;17.10;99.90
8420;DHT22;4247;48.550;8.822;2023-08-06T14:17:37;17.00;99.90
8420;DHT22;4247;48.550;8.822;2023-08-06T14:20:06;17.00;99.90
8420;DHT22;4247;48.550;8.822;2023-08-06T14:22:37;16.90;99.90
8420;DHT22;4247;48.550;8.822;2023-08-06T14:25:06;16.70;99.90
8420;DHT22;4247;48.550;8.822;2023-08-06T14:27:33;16.60;99.90
8420;DHT22;4247;48.550;8.822;2023-08-06T14:30:00;16.60;99.90
8420;DHT22;4247;48.550;8.822;2023-08-06T14:32:28;16.40;99.90
8420;DHT22;4247;48.550;8.822;2023-08-06T14:34:55;16.50;99.90
8420;DHT22;4247;48.550;8.822;2023-08-06T14:37:23;16.50;99.90
8420;DHT22;4247;48.550;8.822;2023-08-06T14:39:49;16.70;99.90
8420;DHT22;4247;48.550;8.822;2023-08-06T14:42:17;16.50;99.90
8420;DHT22;4247;48.550;8.822;2023-08-06T14:44:44;16.50;99.90
8420;DHT22;4247;48.550;8.822;2023-08-06T14:47:11;16.30;99.90
8420;DHT22;4247;48.550;8.822;2023-08-06T14:49:38;16.20;99.90
8420;DHT22;4247;48.550;8.822;2023-08-06T14:52:06;16.10;99.90
8420;DHT22;4247;48.550;8.822;2023-08-06T14:54:32;16.00;99.90
8420;DHT22;4247;48.550;8.822;2023-08-06T14:56:59;16.00;99.90
8420;DHT22;4247;48.550;8.822;2023-08-06T14:59:27;16.10;99.90
8420;DHT22;4247;48.550;8.822;2023-08-06T15:01:54;16.20;99.90
8420;DHT22;4247;48.550;8.822;2023-08-06T15:04:21;16.20;99.90
8420;DHT22;4247;48.550;8.822;2023-08-06T15:06:48;16.20;99.90
8420;DHT22;4247;48.550;8.822;2023-08-06T15:09:15;16.30;99.90
8420;DHT22;4247;48.550;8.822;2023-08-06T15:11:42;16.30;99.90
8420;DHT22;4247;48.550;8.822;2023-08-06T15:14:08;16.20;99.90
8420;DHT22;4247;48.550;8.822;2023-08-06T15:16:36;16.30;99.90
8420;DHT22;4247;48.550;8.822;2023-08-06T15:19:03;16.20;99.90
8420;DHT22;4247;48.550;8.822;2023-08-06T15:21:30;16.20;99.90
8420;DHT22;4247;48.550;8.822;2023-08-06T15:23:57;16.20;99.90
8420;DHT22;4247;48.550;8.822;2023-08-06T15:26:23;16.20;99.90
8420;DHT22;4247;48.550;8.822;2023-08-06T15:28:50;16.20;99.90
8420;DHT22;4247;48.550;8.822;2023-08-06T15:31:19;16.20;99.90
8420;DHT22;4247;48.550;8.822;2023-08-06T15:33:48;16.20;99.90
8420;DHT22;4247;48.550;8.822;2023-08-06T15:36:14;16.20;99.90
8420;DHT22;4247;48.550;8.822;2023-08-06T15:38:41;16.20;99.90
8420;DHT22;4247;48.550;8.822;2023-08-06T15:41:08;16.00;99.90
8420;DHT22;4247;48.550;8.822;2023-08-06T15:43:35;15.90;99.90
8420;DHT22;4247;48.550;8.822;2023-08-06T15:46:02;16.00;99.90
8420;DHT22;4247;48.550;8.822;2023-08-06T15:48:28;16.00;99.90
8420;DHT22;4247;48.550;8.822;2023-08-06T15:50:57;16.00;99.90
8420;DHT22;4247;48.550;8.822;2023-08-06T15:53:24;15.90;99.90
8420;DHT22;4247;48.550;8.822;2023-08-06T15:55:50;15.90;99.90
8420;DHT22;4247;48.550;8.822;2023-08-06T15:58:17;15.80;99.90
8420;DHT22;4247;48.550;8.822;2023-08-06T16:00:44;15.80;99.90
8420;DHT22;4247;48.550;8.822;2023-08-06T16:03:11;15.70;99.90